sensor_id;sensor_type;location;lat;lon;timestamp;pressure;altitude;pressure_sealevel;temperature;humidity
15267;BME280;7735;49.144;8.668;2023-08-31T00:00:50;99585.06;;;18.47;67.32
15267;BME280;7735;49.144;8.668;2023-08-31T00:03:20;99597.31;;;18.48;67.07
15267;BME280;7735;49.144;8.668;2023-08-31T00:06:03;99595.53;;;18.48;67.33
15267;BME280;7735;49.144;8.668;2023-08-31T00:08:55;99590.25;;;18.48;67.20
15267;BME280;7735;49.144;8.668;2023-08-31T00:11:46;99590.16;;;18.50;67.23
15267;BME280;7735;49.144;8.668;2023-08-31T00:17:08;99585.59;;;18.53;67.10
15267;BME280;7735;49.144;8.668;2023-08-31T00:19:50;99582.00;;;18.54;66.95
15267;BME280;7735;49.144;8.668;2023-08-31T00:22:30;99585.66;;;18.52;66.87
15267;BME280;7735;49.144;8.668;2023-08-31T00:25:23;99577.75;;;18.52;66.90
15267;BME280;7735;49.144;8.668;2023-08-31T00:27:56;99590.16;;;18.50;67.08
15267;BME280;7735;49.144;8.668;2023-08-31T00:30:39;99597.22;;;18.49;67.07
15267;BME280;7735;49.144;8.668;2023-08-31T00:33:29;99593.75;;;18.49;67.11
15267;BME280;7735;49.144;8.668;2023-08-31T00:36:03;99597.16;;;18.51;67.13
15267;BME280;7735;49.144;8.668;2023-08-31T00:38:36;99595.44;;;18.50;66.89
15267;BME280;7735;49.144;8.668;2023-08-31T00:41:19;99602.59;;;18.48;67.09
15267;BME280;7735;49.144;8.668;2023-08-31T00:44:02;99599.31;;;18.43;67.36
15267;BME280;7735;49.144;8.668;2023-08-31T00:47:06;99601.00;;;18.44;67.43
15267;BME280;7735;49.144;8.668;2023-08-31T00:49:46;99593.19;;;18.42;67.44
15267;BME280;7735;49.144;8.668;2023-08-31T00:52:29;99597.75;;;18.38;67.43
15267;BME280;7735;49.144;8.668;2023-08-31T00:55:05;99596.91;;;18.38;67.54
15267;BME280;7735;49.144;8.668;2023-08-31T00:57:39;99601.16;;;18.40;67.64
15267;BME280;7735;49.144;8.668;2023-08-31T01:00:33;99598.38;;;18.44;67.71
15267;BME280;7735;49.144;8.668;2023-08-31T01:03:13;99599.31;;;18.43;67.53
15267;BME280;7735;49.144;8.668;2023-08-31T01:06:07;99609.91;;;18.41;67.67
15267;BME280;7735;49.144;8.668;2023-08-31T01:08:52;99610.94;;;18.38;67.60
15267;BME280;7735;49.144;8.668;2023-08-31T01:11:31;99606.56;;;18.37;67.75
15267;BME280;7735;49.144;8.668;2023-08-31T01:14:16;99603.94;;;18.37;67.92
15267;BME280;7735;49.144;8.668;2023-08-31T01:17:00;99619.91;;;18.34;67.70
15267;BME280;7735;49.144;8.668;2023-08-31T01:19:51;99617.44;;;18.31;67.77
15267;BME280;7735;49.144;8.668;2023-08-31T01:22:31;99610.53;;;18.29;67.87
15267;BME280;7735;49.144;8.668;2023-08-31T01:25:24;99611.38;;;18.29;67.70
15267;BME280;7735;49.144;8.668;2023-08-31T01:27:54;99602.53;;;18.30;67.87
15267;BME280;7735;49.144;8.668;2023-08-31T01:30:36;99617.44;;;18.31;67.72
15267;BME280;7735;49.144;8.668;2023-08-31T01:33:37;99621.00;;;18.30;67.91
15267;BME280;7735;49.144;8.668;2023-08-31T01:35:57;99621.91;;;18.29;67.78
15267;BME280;7735;49.144;8.668;2023-08-31T01:38:36;99625.41;;;18.30;67.96
15267;BME280;7735;49.144;8.668;2023-08-31T01:41:11;99621.00;;;18.30;67.76
15267;BME280;7735;49.144;8.668;2023-08-31T01:43:43;99626.38;;;18.27;67.54
15267;BME280;7735;49.144;8.668;2023-08-31T01:46:30;99633.69;;;18.22;67.82
15267;BME280;7735;49.144;8.668;2023-08-31T01:48:57;99639.91;;;18.20;67.75
15267;BME280;7735;49.144;8.668;2023-08-31T01:51:34;99636.50;;;18.18;67.78
15267;BME280;7735;49.144;8.668;2023-08-31T01:54:06;99635.66;;;18.17;67.90
15267;BME280;7735;49.144;8.668;2023-08-31T01:57:05;99639.06;;;18.19;67.88
15267;BME280;7735;49.144;8.668;2023-08-31T01:59:56;99648.84;;;18.17;67.61
15267;BME280;7735;49.144;8.668;2023-08-31T02:02:29;99648.06;;;18.15;67.71
15267;BME280;7735;49.144;8.668;2023-08-31T02:05:10;99645.50;;;18.14;67.58
15267;BME280;7735;49.144;8.668;2023-08-31T02:07:41;99641.09;;;18.14;67.61
15267;BME280;7735;49.144;8.668;2023-08-31T02:13:04;99644.50;;;18.16;67.39
15267;BME280;7735;49.144;8.668;2023-08-31T02:15:33;99648.84;;;18.17;67.37
15267;BME280;7735;49.144;8.668;2023-08-31T02:18:07;99651.38;;;18.19;67.34
15267;BME280;7735;49.144;8.668;2023-08-31T02:20:44;99654.88;;;18.19;67.23
15267;BME280;7735;49.144;8.668;2023-08-31T02:30:23;99649.84;;;17.96;67.32
15267;BME280;7735;49.144;8.668;2023-08-31T02:33:29;99643.91;;;17.91;67.33
15267;BME280;7735;49.144;8.668;2023-08-31T02:39:49;99653.59;;;17.90;67.32
15267;BME280;7735;49.144;8.668;2023-08-31T02:42:24;99655.47;;;17.88;67.36
15267;BME280;7735;49.144;8.668;2023-08-31T02:44:58;99651.91;;;17.89;67.44
15267;BME280;7735;49.144;8.668;2023-08-31T02:47:27;99656.31;;;17.89;67.32
15267;BME280;7735;49.144;8.668;2023-08-31T02:50:10;99663.44;;;17.87;67.29
15267;BME280;7735;49.144;8.668;2023-08-31T02:52:42;99666.25;;;17.82;67.53
15267;BME280;7735;49.144;8.668;2023-08-31T02:55:25;99660.28;;;17.78;67.57
15267;BME280;7735;49.144;8.668;2023-08-31T02:57:52;99662.91;;;17.78;67.47
15267;BME280;7735;49.144;8.668;2023-08-31T03:00:18;99655.81;;;17.80;67.75
15267;BME280;7735;49.144;8.668;2023-08-31T03:03:05;99660.72;;;17.88;67.62
15267;BME280;7735;49.144;8.668;2023-08-31T03:09:07;99654.34;;;17.94;67.25
15267;BME280;7735;49.144;8.668;2023-08-31T03:12:03;99665.72;;;17.94;67.23
15267;BME280;7735;49.144;8.668;2023-08-31T03:14:33;99666.56;;;17.95;67.16
15267;BME280;7735;49.144;8.668;2023-08-31T03:17:00;99674.53;;;17.93;67.13
15267;BME280;7735;49.144;8.668;2023-08-31T03:19:48;99671.88;;;17.93;67.01
15267;BME280;7735;49.144;8.668;2023-08-31T03:23:08;99670.25;;;17.91;67.06
15267;BME280;7735;49.144;8.668;2023-08-31T03:32:03;99684.34;;;17.90;67.02
15267;BME280;7735;49.144;8.668;2023-08-31T03:34:30;99682.50;;;17.92;66.89
15267;BME280;7735;49.144;8.668;2023-08-31T03:36:57;99680.69;;;17.94;66.91
15267;BME280;7735;49.144;8.668;2023-08-31T03:39:24;99683.22;;;17.95;66.88
15267;BME280;7735;49.144;8.668;2023-08-31T03:41:52;99698.97;;;17.97;66.84
15267;BME280;7735;49.144;8.668;2023-08-31T03:44:20;99697.19;;;17.97;66.87
15267;BME280;7735;49.144;8.668;2023-08-31T03:46:47;99700.66;;;17.98;66.44
15267;BME280;7735;49.144;8.668;2023-08-31T03:49:13;99694.41;;;18.00;66.74
15267;BME280;7735;49.144;8.668;2023-08-31T03:51:40;99699.59;;;18.02;66.45
15267;BME280;7735;49.144;8.668;2023-08-31T03:54:06;99705.75;;;18.02;66.38
15267;BME280;7735;49.144;8.668;2023-08-31T03:56:33;99709.34;;;18.00;66.23
15267;BME280;7735;49.144;8.668;2023-08-31T03:59:02;99711.97;;;18.00;66.44
15267;BME280;7735;49.144;8.668;2023-08-31T04:01:29;99705.00;;;17.99;66.27
15267;BME280;7735;49.144;8.668;2023-08-31T04:03:55;99713.84;;;17.98;66.21
15267;BME280;7735;49.144;8.668;2023-08-31T04:06:22;99707.72;;;17.97;66.29
15267;BME280;7735;49.144;8.668;2023-08-31T04:08:48;99711.19;;;17.98;66.15
15267;BME280;7735;49.144;8.668;2023-08-31T04:11:16;99709.41;;;17.98;66.34
15267;BME280;7735;49.144;8.668;2023-08-31T04:13:43;99702.44;;;17.97;66.11
15267;BME280;7735;49.144;8.668;2023-08-31T04:16:11;99709.56;;;17.95;66.17
15267;BME280;7735;49.144;8.668;2023-08-31T04:18:37;99708.72;;;17.95;65.96
15267;BME280;7735;49.144;8.668;2023-08-31T04:21:05;99713.97;;;17.95;66.04
15267;BME280;7735;49.144;8.668;2023-08-31T04:23:32;99721.94;;;17.93;66.04
15267;BME280;7735;49.144;8.668;2023-08-31T04:25:59;99717.66;;;17.91;65.78
15267;BME280;7735;49.144;8.668;2023-08-31T04:28:26;99724.78;;;17.89;66.00
15267;BME280;7735;49.144;8.668;2023-08-31T04:31:04;99724.78;;;17.89;66.11
15267;BME280;7735;49.144;8.668;2023-08-31T04:33:33;99729.19;;;17.88;66.00
15267;BME280;7735;49.144;8.668;2023-08-31T04:36:00;99716.97;;;17.87;66.03
15267;BME280;7735;49.144;8.668;2023-08-31T04:38:26;99730.13;;;17.87;65.92
15267;BME280;7735;49.144;8.668;2023-08-31T04:41:01;99731.06;;;17.86;65.71
15267;BME280;7735;49.144;8.668;2023-08-31T04:43:28;99729.06;;;18.10;65.79
15267;BME280;7735;49.144;8.668;2023-08-31T04:45:56;99733.91;;;18.19;65.05
15267;BME280;7735;49.144;8.668;2023-08-31T04:48:23;99731.44;;;18.16;64.68
15267;BME280;7735;49.144;8.668;2023-08-31T04:50:55;99728.09;;;18.13;64.78
15267;BME280;7735;49.144;8.668;2023-08-31T04:53:22;99727.25;;;18.12;64.98
15267;BME280;7735;49.144;8.668;2023-08-31T04:55:48;99721.16;;;18.10;64.89
15267;BME280;7735;49.144;8.668;2023-08-31T04:58:15;99732.63;;;18.09;65.04
15267;BME280;7735;49.144;8.668;2023-08-31T05:00:41;99733.50;;;18.09;64.90
15267;BME280;7735;49.144;8.668;2023-08-31T05:03:09;99736.09;;;18.11;64.93
15267;BME280;7735;49.144;8.668;2023-08-31T05:05:36;99742.22;;;18.11;64.74
15267;BME280;7735;49.144;8.668;2023-08-31T05:08:05;99746.47;;;18.14;64.85
15267;BME280;7735;49.144;8.668;2023-08-31T05:10:31;99751.75;;;18.14;64.71
15267;BME280;7735;49.144;8.668;2023-08-31T05:12:59;99756.22;;;18.12;64.55
15267;BME280;7735;49.144;8.668;2023-08-31T05:15:25;99748.31;;;18.12;64.63
15267;BME280;7735;49.144;8.668;2023-08-31T05:17:54;99763.97;;;18.15;64.57
15267;BME280;7735;49.144;8.668;2023-08-31T05:20:21;99767.41;;;18.17;64.53
15267;BME280;7735;49.144;8.668;2023-08-31T05:22:49;99763.97;;;18.15;64.51
15267;BME280;7735;49.144;8.668;2023-08-31T05:25:17;99772.75;;;18.16;64.48
15267;BME280;7735;49.144;8.668;2023-08-31T05:27:43;99773.81;;;18.11;64.51
15267;BME280;7735;49.144;8.668;2023-08-31T05:30:10;99781.91;;;18.07;64.54
15267;BME280;7735;49.144;8.668;2023-08-31T05:32:37;99780.22;;;18.06;64.69
15267;BME280;7735;49.144;8.668;2023-08-31T05:35:04;99784.75;;;18.02;64.81
15267;BME280;7735;49.144;8.668;2023-08-31T05:37:32;99782.91;;;18.04;64.78
15267;BME280;7735;49.144;8.668;2023-08-31T05:39:59;99797.72;;;18.07;64.90
15267;BME280;7735;49.144;8.668;2023-08-31T05:42:27;99798.56;;;18.07;64.89
15267;BME280;7735;49.144;8.668;2023-08-31T05:44:54;99798.50;;;18.09;64.77
15267;BME280;7735;49.144;8.668;2023-08-31T05:47:21;99797.47;;;18.13;64.74
15267;BME280;7735;49.144;8.668;2023-08-31T05:49:47;99805.13;;;18.18;64.74
15267;BME280;7735;49.144;8.668;2023-08-31T05:52:14;99808.06;;;18.11;64.31
15267;BME280;7735;49.144;8.668;2023-08-31T05:54:41;99803.13;;;18.04;64.40
15267;BME280;7735;49.144;8.668;2023-08-31T05:57:07;99808.41;;;18.04;64.64
15267;BME280;7735;49.144;8.668;2023-08-31T05:59:35;99797.66;;;18.08;64.40
15267;BME280;7735;49.144;8.668;2023-08-31T06:02:02;99792.31;;;18.10;64.40
15267;BME280;7735;49.144;8.668;2023-08-31T06:04:29;99807.41;;;18.06;64.42
15267;BME280;7735;49.144;8.668;2023-08-31T06:06:56;99805.53;;;18.08;64.45
15267;BME280;7735;49.144;8.668;2023-08-31T06:09:23;99808.97;;;18.10;64.39
15267;BME280;7735;49.144;8.668;2023-08-31T06:11:49;99800.09;;;18.13;64.04
15267;BME280;7735;49.144;8.668;2023-08-31T06:14:16;99799.16;;;18.14;63.96
15267;BME280;7735;49.144;8.668;2023-08-31T06:16:44;99810.63;;;18.13;63.75
15267;BME280;7735;49.144;8.668;2023-08-31T06:19:10;99808.09;;;18.10;63.70
15267;BME280;7735;49.144;8.668;2023-08-31T06:21:40;99812.50;;;18.11;63.74
15267;BME280;7735;49.144;8.668;2023-08-31T06:24:07;99814.19;;;18.12;63.83
15267;BME280;7735;49.144;8.668;2023-08-31T06:26:36;99827.28;;;18.14;63.68
15267;BME280;7735;49.144;8.668;2023-08-31T06:29:02;99830.00;;;18.12;63.61
15267;BME280;7735;49.144;8.668;2023-08-31T06:31:29;99830.19;;;18.07;63.38
15267;BME280;7735;49.144;8.668;2023-08-31T06:33:57;99827.47;;;18.09;63.57
15267;BME280;7735;49.144;8.668;2023-08-31T06:36:24;99826.56;;;18.10;63.42
15267;BME280;7735;49.144;8.668;2023-08-31T06:38:51;99825.78;;;18.08;63.46
15267;BME280;7735;49.144;8.668;2023-08-31T06:41:17;99828.34;;;18.09;63.50
15267;BME280;7735;49.144;8.668;2023-08-31T06:43:44;99826.44;;;18.13;63.54
15267;BME280;7735;49.144;8.668;2023-08-31T06:46:11;99835.91;;;18.17;63.52
15267;BME280;7735;49.144;8.668;2023-08-31T06:48:37;99839.31;;;18.19;63.23
15267;BME280;7735;49.144;8.668;2023-08-31T06:51:05;99838.44;;;18.20;62.93
15267;BME280;7735;49.144;8.668;2023-08-31T06:53:32;99842.78;;;18.21;62.84
15267;BME280;7735;49.144;8.668;2023-08-31T06:55:58;99843.56;;;18.23;62.78
15267;BME280;7735;49.144;8.668;2023-08-31T06:58:25;99853.03;;;18.27;62.75
15267;BME280;7735;49.144;8.668;2023-08-31T07:00:52;99852.09;;;18.28;62.67
15267;BME280;7735;49.144;8.668;2023-08-31T07:03:18;99847.75;;;18.27;62.22
15267;BME280;7735;49.144;8.668;2023-08-31T07:05:45;99846.03;;;18.26;62.06
15267;BME280;7735;49.144;8.668;2023-08-31T07:08:13;99851.19;;;18.29;62.17
15267;BME280;7735;49.144;8.668;2023-08-31T07:10:39;99853.84;;;18.29;62.03
15267;BME280;7735;49.144;8.668;2023-08-31T07:13:06;99851.97;;;18.31;62.08
15267;BME280;7735;49.144;8.668;2023-08-31T07:15:33;99863.31;;;18.33;61.89
15267;BME280;7735;49.144;8.668;2023-08-31T07:18:00;99863.16;;;18.36;62.06
15267;BME280;7735;49.144;8.668;2023-08-31T07:20:26;99868.31;;;18.39;62.10
15267;BME280;7735;49.144;8.668;2023-08-31T07:22:53;99869.78;;;18.45;61.63
15267;BME280;7735;49.144;8.668;2023-08-31T07:25:21;99873.16;;;18.49;61.64
15267;BME280;7735;49.144;8.668;2023-08-31T07:27:48;99873.88;;;18.52;61.50
15267;BME280;7735;49.144;8.668;2023-08-31T07:30:14;99869.34;;;18.56;61.40
15267;BME280;7735;49.144;8.668;2023-08-31T07:32:41;99869.03;;;18.62;61.11
15267;BME280;7735;49.144;8.668;2023-08-31T07:35:08;99869.81;;;18.64;60.97
15267;BME280;7735;49.144;8.668;2023-08-31T07:37:34;99865.31;;;18.67;60.22
15267;BME280;7735;49.144;8.668;2023-08-31T07:40:03;99870.50;;;18.69;59.36
15267;BME280;7735;49.144;8.668;2023-08-31T07:42:35;99869.50;;;18.72;58.62
15267;BME280;7735;49.144;8.668;2023-08-31T07:45:01;99868.53;;;18.74;59.04
15267;BME280;7735;49.144;8.668;2023-08-31T07:47:28;99874.59;;;18.76;58.50
15267;BME280;7735;49.144;8.668;2023-08-31T07:49:54;99882.22;;;18.82;58.12
15267;BME280;7735;49.144;8.668;2023-08-31T07:52:21;99883.09;;;18.83;57.63
15267;BME280;7735;49.144;8.668;2023-08-31T07:54:48;99890.84;;;18.86;57.49
15267;BME280;7735;49.144;8.668;2023-08-31T07:57:14;99893.13;;;18.93;57.85
15267;BME280;7735;49.144;8.668;2023-08-31T07:59:42;99892.88;;;19.00;57.56
15267;BME280;7735;49.144;8.668;2023-08-31T08:02:12;99899.78;;;19.02;56.98
15267;BME280;7735;49.144;8.668;2023-08-31T08:04:41;99899.03;;;18.99;56.07
15267;BME280;7735;49.144;8.668;2023-08-31T08:07:07;99900.91;;;18.96;56.52
15267;BME280;7735;49.144;8.668;2023-08-31T08:09:34;99903.34;;;19.01;56.97
15267;BME280;7735;49.144;8.668;2023-08-31T08:12:01;99897.06;;;19.04;56.56
15267;BME280;7735;49.144;8.668;2023-08-31T08:14:28;99904.97;;;19.04;55.76
15267;BME280;7735;49.144;8.668;2023-08-31T08:16:56;99906.06;;;19.00;54.97
15267;BME280;7735;49.144;8.668;2023-08-31T08:19:23;99902.50;;;19.01;55.15
15267;BME280;7735;49.144;8.668;2023-08-31T08:21:50;99910.41;;;19.01;54.44
15267;BME280;7735;49.144;8.668;2023-08-31T08:24:16;99906.84;;;19.02;54.25
15267;BME280;7735;49.144;8.668;2023-08-31T08:26:43;99911.97;;;19.05;54.10
15267;BME280;7735;49.144;8.668;2023-08-31T08:29:09;99917.91;;;19.10;53.79
15267;BME280;7735;49.144;8.668;2023-08-31T08:31:36;99917.91;;;19.10;53.57
15267;BME280;7735;49.144;8.668;2023-08-31T08:34:04;99912.47;;;19.13;53.21
15267;BME280;7735;49.144;8.668;2023-08-31T08:36:31;99917.47;;;19.19;53.11
15267;BME280;7735;49.144;8.668;2023-08-31T08:38:57;99913.03;;;19.19;52.82
15267;BME280;7735;49.144;8.668;2023-08-31T08:41:24;99918.16;;;19.22;52.76
15267;BME280;7735;49.144;8.668;2023-08-31T08:43:51;99923.34;;;19.24;52.64
15267;BME280;7735;49.144;8.668;2023-08-31T08:46:18;99920.59;;;19.27;52.45
15267;BME280;7735;49.144;8.668;2023-08-31T08:48:45;99917.03;;;19.28;52.28
15267;BME280;7735;49.144;8.668;2023-08-31T08:51:14;99920.28;;;19.33;52.11
15267;BME280;7735;49.144;8.668;2023-08-31T08:53:43;99926.22;;;19.38;51.91
15267;BME280;7735;49.144;8.668;2023-08-31T08:56:09;99927.00;;;19.40;51.71
15267;BME280;7735;49.144;8.668;2023-08-31T08:58:36;99920.78;;;19.41;51.36
15267;BME280;7735;49.144;8.668;2023-08-31T09:01:03;99921.44;;;19.46;51.72
15267;BME280;7735;49.144;8.668;2023-08-31T09:03:32;99922.84;;;19.53;51.71
15267;BME280;7735;49.144;8.668;2023-08-31T09:05:59;99921.63;;;19.61;51.69
15267;BME280;7735;49.144;8.668;2023-08-31T09:08:28;99921.25;;;19.68;51.00
15267;BME280;7735;49.144;8.668;2023-08-31T09:10:56;99932.56;;;19.72;50.34
15267;BME280;7735;49.144;8.668;2023-08-31T09:13:26;99929.66;;;19.76;50.00
15267;BME280;7735;49.144;8.668;2023-08-31T09:15:53;99926.81;;;19.81;50.00
15267;BME280;7735;49.144;8.668;2023-08-31T09:18:23;99940.53;;;20.24;48.83
15267;BME280;7735;49.144;8.668;2023-08-31T09:20:50;99935.63;;;20.33;48.38
15267;BME280;7735;49.144;8.668;2023-08-31T09:23:17;99935.72;;;20.32;48.29
15267;BME280;7735;49.144;8.668;2023-08-31T09:25:47;99933.06;;;20.32;48.22
15267;BME280;7735;49.144;8.668;2023-08-31T09:28:15;99934.78;;;20.33;48.32
15267;BME280;7735;49.144;8.668;2023-08-31T09:30:42;99926.91;;;20.31;48.04
15267;BME280;7735;49.144;8.668;2023-08-31T09:33:09;99942.84;;;20.30;47.49
15267;BME280;7735;49.144;8.668;2023-08-31T09:35:39;99946.59;;;20.26;46.82
15267;BME280;7735;49.144;8.668;2023-08-31T09:38:10;99947.66;;;20.22;46.94
15267;BME280;7735;49.144;8.668;2023-08-31T09:40:37;99930.94;;;20.21;46.53
15267;BME280;7735;49.144;8.668;2023-08-31T09:43:05;99942.38;;;20.22;46.61
15267;BME280;7735;49.144;8.668;2023-08-31T09:45:33;99933.44;;;20.24;45.74
15267;BME280;7735;49.144;8.668;2023-08-31T09:48:02;99936.94;;;20.25;45.09
15267;BME280;7735;49.144;8.668;2023-08-31T09:50:29;99933.44;;;20.24;45.14
15267;BME280;7735;49.144;8.668;2023-08-31T09:53:00;99938.66;;;20.26;45.26
15267;BME280;7735;49.144;8.668;2023-08-31T09:55:29;99939.44;;;20.28;45.13
15267;BME280;7735;49.144;8.668;2023-08-31T09:57:57;99941.91;;;20.31;44.86
15267;BME280;7735;49.144;8.668;2023-08-31T10:00:26;99939.13;;;20.34;44.36
15267;BME280;7735;49.144;8.668;2023-08-31T10:02:55;99943.31;;;20.38;43.81
15267;BME280;7735;49.144;8.668;2023-08-31T10:05:23;99941.31;;;20.43;44.64
15267;BME280;7735;49.144;8.668;2023-08-31T10:07:50;99938.50;;;20.46;44.69
15267;BME280;7735;49.144;8.668;2023-08-31T10:10:17;99947.31;;;20.47;44.84
15267;BME280;7735;49.144;8.668;2023-08-31T10:12:45;99939.06;;;20.53;44.23
15267;BME280;7735;49.144;8.668;2023-08-31T10:15:15;99944.88;;;20.59;44.23
15267;BME280;7735;49.144;8.668;2023-08-31T10:17:43;99943.78;;;20.63;43.95
15267;BME280;7735;49.144;8.668;2023-08-31T10:20:12;99938.19;;;20.70;44.00
15267;BME280;7735;49.144;8.668;2023-08-31T10:22:39;99941.19;;;20.79;43.88
15267;BME280;7735;49.144;8.668;2023-08-31T10:25:07;99945.38;;;20.83;43.35
15267;BME280;7735;49.144;8.668;2023-08-31T10:27:38;99949.81;;;20.83;41.89
15267;BME280;7735;49.144;8.668;2023-08-31T10:30:16;99942.97;;;20.79;41.68
15267;BME280;7735;49.144;8.668;2023-08-31T10:33:19;99934.28;;;20.77;41.84
15267;BME280;7735;49.144;8.668;2023-08-31T10:35:51;99942.44;;;20.72;41.95
15267;BME280;7735;49.144;8.668;2023-08-31T10:38:24;99932.63;;;20.74;42.08
15267;BME280;7735;49.144;8.668;2023-08-31T10:41:16;99929.75;;;20.79;42.31
15267;BME280;7735;49.144;8.668;2023-08-31T10:43:46;99930.19;;;20.87;42.64
15267;BME280;7735;49.144;8.668;2023-08-31T10:46:28;99932.06;;;21.01;42.84
15267;BME280;7735;49.144;8.668;2023-08-31T10:48:58;99928.44;;;21.03;41.71
15267;BME280;7735;49.144;8.668;2023-08-31T10:51:26;99933.81;;;21.17;40.73
15267;BME280;7735;49.144;8.668;2023-08-31T10:54:04;99929.59;;;21.31;40.89
15267;BME280;7735;49.144;8.668;2023-08-31T10:56:31;99934.72;;;21.34;41.16
15267;BME280;7735;49.144;8.668;2023-08-31T10:58:58;99927.03;;;21.29;41.36
15267;BME280;7735;49.144;8.668;2023-08-31T11:01:54;99924.50;;;21.26;42.05
15267;BME280;7735;49.144;8.668;2023-08-31T11:04:23;99931.78;;;21.23;42.28
15267;BME280;7735;49.144;8.668;2023-08-31T11:07:12;99924.94;;;21.18;41.90
15267;BME280;7735;49.144;8.668;2023-08-31T11:09:38;99929.88;;;21.09;42.30
15267;BME280;7735;49.144;8.668;2023-08-31T11:12:05;99929.28;;;21.04;42.56
15267;BME280;7735;49.144;8.668;2023-08-31T11:14:32;99927.63;;;21.01;43.15
15267;BME280;7735;49.144;8.668;2023-08-31T11:17:03;99935.44;;;21.04;43.53
15267;BME280;7735;49.144;8.668;2023-08-31T11:19:32;99941.66;;;21.03;43.90
15267;BME280;7735;49.144;8.668;2023-08-31T11:22:00;99940.88;;;21.01;44.02
15267;BME280;7735;49.144;8.668;2023-08-31T11:24:28;99943.69;;;20.98;44.40
15267;BME280;7735;49.144;8.668;2023-08-31T11:26:55;99948.06;;;20.99;44.36
15267;BME280;7735;49.144;8.668;2023-08-31T11:29:22;99937.22;;;21.04;44.10
15267;BME280;7735;49.144;8.668;2023-08-31T11:31:49;99934.50;;;21.05;43.56
15267;BME280;7735;49.144;8.668;2023-08-31T11:34:16;99924.84;;;21.04;43.19
15267;BME280;7735;49.144;8.668;2023-08-31T11:36:46;99937.22;;;21.04;43.06
15267;BME280;7735;49.144;8.668;2023-08-31T11:39:13;99940.72;;;21.04;43.07
15267;BME280;7735;49.144;8.668;2023-08-31T11:41:42;99934.63;;;21.02;43.02
15267;BME280;7735;49.144;8.668;2023-08-31T11:44:09;99937.22;;;21.04;43.03
15267;BME280;7735;49.144;8.668;2023-08-31T11:46:38;99930.72;;;21.09;43.23
15267;BME280;7735;49.144;8.668;2023-08-31T11:49:06;99931.25;;;21.16;43.34
15267;BME280;7735;49.144;8.668;2023-08-31T11:51:33;99934.53;;;21.21;43.61
15267;BME280;7735;49.144;8.668;2023-08-31T11:54:02;99930.06;;;21.21;43.55
15267;BME280;7735;49.144;8.668;2023-08-31T11:56:38;99933.34;;;21.27;43.56
15267;BME280;7735;49.144;8.668;2023-08-31T11:59:08;99932.16;;;21.32;43.58
15267;BME280;7735;49.144;8.668;2023-08-31T12:01:38;99929.41;;;21.34;43.46
15267;BME280;7735;49.144;8.668;2023-08-31T12:04:10;99925.81;;;21.35;43.86
15267;BME280;7735;49.144;8.668;2023-08-31T12:06:38;99931.13;;;21.35;43.90
15267;BME280;7735;49.144;8.668;2023-08-31T12:09:07;99928.38;;;21.36;43.46
15267;BME280;7735;49.144;8.668;2023-08-31T12:11:33;99925.63;;;21.38;43.12
15267;BME280;7735;49.144;8.668;2023-08-31T12:14:00;99936.09;;;21.41;43.17
15267;BME280;7735;49.144;8.668;2023-08-31T12:16:33;99934.00;;;21.46;43.10
15267;BME280;7735;49.144;8.668;2023-08-31T12:19:02;99931.38;;;21.46;43.04
15267;BME280;7735;49.144;8.668;2023-08-31T12:21:29;99925.81;;;21.51;43.28
15267;BME280;7735;49.144;8.668;2023-08-31T12:23:57;99933.59;;;21.54;43.31
15267;BME280;7735;49.144;8.668;2023-08-31T12:26:25;99936.94;;;21.57;43.21
15267;BME280;7735;49.144;8.668;2023-08-31T12:28:51;99927.97;;;21.60;42.98
15267;BME280;7735;49.144;8.668;2023-08-31T12:31:18;99925.97;;;21.63;42.84
15267;BME280;7735;49.144;8.668;2023-08-31T12:33:45;99936.31;;;21.68;42.67
15267;BME280;7735;49.144;8.668;2023-08-31T12:36:18;99931.78;;;21.70;42.93
15267;BME280;7735;49.144;8.668;2023-08-31T12:38:45;99926.47;;;21.70;42.87
15267;BME280;7735;49.144;8.668;2023-08-31T12:41:12;99929.03;;;21.71;43.00
15267;BME280;7735;49.144;8.668;2023-08-31T12:43:40;99926.28;;;21.73;43.12
15267;BME280;7735;49.144;8.668;2023-08-31T12:46:12;99923.50;;;21.76;43.05
15267;BME280;7735;49.144;8.668;2023-08-31T12:48:39;99920.00;;;21.75;43.05
15267;BME280;7735;49.144;8.668;2023-08-31T12:51:06;99926.28;;;21.73;43.14
15267;BME280;7735;49.144;8.668;2023-08-31T12:53:32;99937.00;;;21.71;43.08
15267;BME280;7735;49.144;8.668;2023-08-31T12:56:03;99928.19;;;21.71;43.43
15267;BME280;7735;49.144;8.668;2023-08-31T12:58:31;99930.94;;;21.69;43.54
15267;BME280;7735;49.144;8.668;2023-08-31T13:00:59;99916.72;;;21.70;43.87
15267;BME280;7735;49.144;8.668;2023-08-31T13:03:26;99924.06;;;21.81;43.82
15267;BME280;7735;49.144;8.668;2023-08-31T13:05:53;99918.41;;;21.87;43.82
15267;BME280;7735;49.144;8.668;2023-08-31T13:08:19;99917.22;;;21.93;43.80
15267;BME280;7735;49.144;8.668;2023-08-31T13:10:51;99910.22;;;21.92;43.46
15267;BME280;7735;49.144;8.668;2023-08-31T13:13:18;99908.56;;;21.89;43.84
15267;BME280;7735;49.144;8.668;2023-08-31T13:15:45;99913.03;;;21.89;43.91
15267;BME280;7735;49.144;8.668;2023-08-31T13:18:14;99919.28;;;21.88;43.87
15267;BME280;7735;49.144;8.668;2023-08-31T13:20:48;99917.66;;;21.85;43.63
15267;BME280;7735;49.144;8.668;2023-08-31T13:23:15;99911.50;;;21.85;43.71
15267;BME280;7735;49.144;8.668;2023-08-31T13:25:45;99921.81;;;21.89;43.28
15267;BME280;7735;49.144;8.668;2023-08-31T13:28:12;99915.22;;;21.96;43.48
15267;BME280;7735;49.144;8.668;2023-08-31T13:30:39;99917.22;;;22.09;43.62
15267;BME280;7735;49.144;8.668;2023-08-31T13:33:06;99910.97;;;22.24;43.18
15267;BME280;7735;49.144;8.668;2023-08-31T13:35:35;99904.47;;;22.29;42.43
15267;BME280;7735;49.144;8.668;2023-08-31T13:38:05;99905.31;;;22.30;42.54
15267;BME280;7735;49.144;8.668;2023-08-31T13:40:34;99900.84;;;22.30;41.87
15267;BME280;7735;49.144;8.668;2023-08-31T13:43:00;99908.91;;;22.29;41.96
15267;BME280;7735;49.144;8.668;2023-08-31T13:45:28;99914.38;;;22.26;42.26
15267;BME280;7735;49.144;8.668;2023-08-31T13:47:55;99908.50;;;22.21;41.95
15267;BME280;7735;49.144;8.668;2023-08-31T13:50:22;99913.13;;;22.17;42.11
15267;BME280;7735;49.144;8.668;2023-08-31T13:52:50;99919.56;;;22.13;42.44
15267;BME280;7735;49.144;8.668;2023-08-31T13:55:16;99908.22;;;22.11;42.19